createdAt,value
2023-02-08T00:01:33.557Z,62.64
2023-02-08T00:04:02.367Z,62.51
2023-02-08T00:06:30.905Z,62.55
2023-02-08T00:09:00.130Z,62.50
2023-02-08T00:11:28.484Z,62.64
2023-02-08T00:13:56.720Z,62.62
2023-02-08T00:16:25.194Z,62.28
2023-02-08T00:18:53.718Z,62.12
2023-02-08T00:21:22.725Z,62.30
2023-02-08T00:23:51.317Z,62.36
2023-02-08T00:26:20.051Z,62.36
2023-02-08T00:28:48.250Z,62.30
2023-02-08T00:31:16.664Z,62.46
2023-02-08T00:33:45.991Z,62.34
2023-02-08T00:36:14.437Z,62.31
2023-02-08T00:38:42.834Z,62.15
2023-02-08T00:41:11.654Z,61.85
2023-02-08T00:43:40.145Z,61.88
2023-02-08T00:46:09.854Z,61.73
2023-02-08T00:48:38.271Z,61.73
2023-02-08T00:51:13.940Z,61.76
2023-02-08T00:53:45.606Z,61.74
2023-02-08T00:56:16.085Z,61.78
2023-02-08T00:58:45.196Z,61.57
2023-02-08T01:01:14.546Z,62.07
2023-02-08T01:03:45.707Z,62.07
2023-02-08T01:06:17.075Z,62.04
2023-02-08T01:08:45.529Z,61.92
2023-02-08T01:11:18.685Z,61.74
2023-02-08T01:13:47.267Z,61.90
2023-02-08T01:16:21.692Z,61.73
2023-02-08T01:18:52.750Z,61.87
2023-02-08T01:21:24.395Z,61.74
2023-02-08T01:23:53.312Z,61.53
2023-02-08T01:26:22.898Z,61.55
2023-02-08T01:28:52.249Z,61.40
2023-02-08T01:31:42.318Z,61.41
2023-02-08T01:34:12.876Z,61.46
2023-02-08T01:36:41.466Z,61.35
2023-02-08T01:39:11.351Z,61.36
2023-02-08T01:41:44.572Z,61.44
2023-02-08T01:44:12.827Z,61.25
2023-02-08T01:46:51.518Z,61.10
2023-02-08T01:49:33.697Z,61.12
2023-02-08T01:52:22.922Z,61.16
2023-02-08T01:54:53.777Z,61.34
2023-02-08T01:57:23.478Z,61.29
2023-02-08T02:00:14.382Z,61.19
2023-02-08T02:02:44.445Z,61.09
2023-02-08T02:05:13.770Z,61.01
2023-02-08T02:07:42.617Z,60.99
2023-02-08T02:10:16.442Z,60.79
2023-02-08T02:12:46.344Z,60.94
2023-02-08T02:15:14.569Z,60.91
2023-02-08T02:17:43.322Z,60.52
2023-02-08T02:20:27.226Z,60.65
2023-02-08T02:23:17.802Z,60.85
2023-02-08T02:26:23.757Z,61.22
2023-02-08T02:29:33.290Z,61.44
2023-02-08T02:32:20.233Z,61.55
2023-02-08T02:35:02.118Z,61.03
2023-02-08T02:37:31.969Z,60.71
2023-02-08T02:40:08.999Z,60.69
2023-02-08T02:43:27.450Z,60.44
2023-02-08T02:46:06.297Z,60.54
2023-02-08T02:49:06.563Z,60.19
2023-02-08T02:51:48.144Z,60.09
2023-02-08T02:54:51.396Z,59.85
2023-02-08T02:57:27.529Z,59.66
2023-02-08T02:59:58.005Z,59.43
2023-02-08T03:02:28.531Z,59.18
2023-02-08T03:04:58.078Z,58.75
2023-02-08T03:07:55.863Z,59.43
2023-02-08T03:10:41.220Z,59.39
2023-02-08T03:13:25.861Z,59.42
2023-02-08T03:16:16.336Z,59.07
2023-02-08T03:19:12.106Z,59.05
2023-02-08T03:21:58.515Z,59.61
2023-02-08T03:24:32.228Z,59.06
2023-02-08T03:27:18.339Z,59.13
2023-02-08T03:30:02.820Z,59.47
2023-02-08T03:32:42.867Z,59.13
2023-02-08T03:35:27.193Z,59.74
2023-02-08T03:38:02.395Z,59.42
2023-02-08T03:40:44.897Z,59.21
2023-02-08T03:43:22.529Z,59.14
2023-02-08T03:46:14.196Z,59.45
2023-02-08T03:48:48.387Z,59.43
2023-02-08T03:51:18.564Z,59.21
2023-02-08T03:53:49.291Z,59.23
2023-02-08T03:56:23.152Z,58.98
2023-02-08T03:59:05.055Z,58.82
2023-02-08T04:01:41.881Z,58.75
2023-02-08T04:04:12.912Z,58.98
2023-02-08T04:06:41.511Z,58.71
2023-02-08T04:09:10.829Z,58.71
2023-02-08T04:11:41.603Z,58.30
2023-02-08T04:14:09.698Z,57.96
2023-02-08T04:19:37.310Z,58.54
2023-02-08T04:22:05.484Z,59.13
2023-02-08T04:24:33.827Z,58.72
2023-02-08T04:27:03.469Z,59.30
2023-02-08T04:29:33.339Z,58.72
2023-02-08T04:32:01.671Z,58.41
2023-02-08T04:34:30.282Z,58.20
2023-02-08T04:36:58.585Z,58.06
2023-02-08T04:39:26.855Z,57.81
2023-02-08T04:41:55.033Z,58.06
2023-02-08T04:44:23.751Z,58.02
2023-02-08T04:46:52.553Z,58.09
2023-02-08T04:49:20.820Z,58.04
2023-02-08T04:51:52.221Z,58.00
2023-02-08T04:54:20.538Z,58.07
2023-02-08T04:56:49.091Z,58.50
2023-02-08T04:59:17.456Z,58.27
2023-02-08T05:01:49.037Z,59.17
2023-02-08T05:04:18.645Z,58.75
2023-02-08T05:06:48.481Z,58.77
2023-02-08T05:09:17.817Z,58.51
2023-02-08T05:11:46.156Z,58.41
2023-02-08T05:14:14.366Z,58.45
2023-02-08T05:16:42.667Z,58.57
2023-02-08T05:19:14.640Z,59.54
2023-02-08T05:21:42.974Z,59.54
2023-02-08T05:24:12.841Z,59.06
2023-02-08T05:26:42.184Z,58.71
2023-02-08T05:29:13.251Z,58.51
2023-02-08T05:31:41.546Z,59.07
2023-02-08T05:34:09.943Z,59.21
2023-02-08T05:36:38.380Z,58.81
2023-02-08T05:39:08.162Z,58.74
2023-02-08T05:41:37.129Z,58.95
2023-02-08T05:44:05.532Z,59.02
2023-02-08T05:46:34.643Z,58.79
2023-02-08T05:49:03.739Z,58.46
2023-02-08T05:51:32.261Z,58.24
2023-02-08T05:54:00.563Z,58.67
2023-02-08T05:56:29.086Z,58.87
2023-02-08T05:58:57.773Z,58.75
2023-02-08T06:01:26.262Z,58.77
2023-02-08T06:03:55.301Z,59.04
2023-02-08T06:06:24.168Z,58.68
2023-02-08T06:08:52.542Z,58.62
2023-02-08T06:11:20.800Z,58.66
2023-02-08T06:13:49.093Z,58.91
2023-02-08T06:16:19.893Z,58.77
2023-02-08T06:18:48.996Z,58.65
2023-02-08T06:21:18.010Z,58.36
2023-02-08T06:23:47.556Z,58.25
2023-02-08T06:26:15.853Z,58.18
2023-02-08T06:28:47.645Z,58.18
2023-02-08T06:31:16.163Z,57.95
2023-02-08T06:33:44.562Z,57.85
2023-02-08T06:36:12.805Z,57.60
2023-02-08T06:38:41.225Z,57.26
2023-02-08T06:41:09.404Z,57.34
2023-02-08T06:43:41.004Z,57.40
2023-02-08T06:46:09.605Z,57.45
2023-02-08T06:48:39.173Z,57.53
2023-02-08T06:51:08.111Z,57.61
2023-02-08T06:53:36.439Z,57.80
2023-02-08T06:56:05.032Z,57.20
2023-02-08T06:58:33.283Z,57.09
2023-02-08T07:01:01.640Z,57.63
2023-02-08T07:03:30.019Z,57.22
2023-02-08T07:06:04.954Z,57.04
2023-02-08T07:08:36.791Z,57.60
2023-02-08T07:11:13.709Z,57.42
2023-02-08T07:13:45.051Z,56.98
2023-02-08T07:16:20.245Z,57.07
2023-02-08T07:18:50.527Z,57.10
2023-02-08T07:21:19.082Z,57.27
2023-02-08T07:23:47.752Z,57.59
2023-02-08T07:26:17.247Z,57.42
2023-02-08T07:28:45.617Z,57.23
2023-02-08T07:31:17.119Z,57.74
2023-02-08T07:33:45.628Z,57.18
2023-02-08T07:36:14.333Z,57.17
2023-02-08T07:38:42.721Z,56.93
2023-02-08T07:41:14.599Z,57.07
2023-02-08T07:43:43.620Z,57.24
2023-02-08T07:46:18.295Z,57.58
2023-02-08T07:48:46.883Z,57.03
2023-02-08T07:51:17.927Z,57.47
2023-02-08T07:53:46.378Z,57.46
2023-02-08T07:56:14.728Z,57.18
2023-02-08T07:58:43.262Z,57.73
2023-02-08T08:01:22.056Z,57.15
2023-02-08T08:03:52.223Z,57.48
2023-02-08T08:06:22.318Z,57.64
2023-02-08T08:08:51.289Z,57.45
2023-02-08T08:11:24.260Z,57.47
2023-02-08T08:13:54.407Z,58.14
2023-02-08T08:16:22.837Z,58.41
2023-02-08T08:18:51.109Z,58.84
2023-02-08T08:21:20.124Z,58.33
2023-02-08T08:23:48.486Z,59.17
2023-02-08T08:26:20.773Z,58.93
2023-02-08T08:28:49.183Z,58.78
2023-02-08T08:31:21.334Z,59.14
2023-02-08T08:33:50.599Z,58.71
2023-02-08T08:36:19.229Z,58.63
2023-02-08T08:38:47.438Z,59.00
2023-02-08T08:41:18.321Z,58.51
2023-02-08T08:43:47.298Z,59.45
2023-02-08T08:46:20.058Z,59.63
2023-02-08T08:48:48.966Z,58.83
2023-02-08T08:51:17.434Z,58.44
2023-02-08T08:53:46.001Z,58.85
2023-02-08T08:56:14.392Z,59.49
2023-02-08T08:58:44.403Z,59.17
2023-02-08T09:01:14.679Z,59.22
2023-02-08T09:03:43.322Z,59.73
2023-02-08T09:06:11.833Z,58.74
2023-02-08T09:08:40.900Z,59.07
2023-02-08T09:11:11.748Z,59.02
